Weather at Aeródromo Pelayos de la Presa

Public forecast

Using degrees Celsius for public forecast. Weather courtesy of forecast.io.

Closest aviation weather report (METAR) to Aeródromo Pelayos de la Presa

Closest report is Getafe Air Base, 30.5 nm (56.5 km) E. Retrieved 2021/04/11 12:00 UTC (22 minutes ago):

LEGT 111200Z 23008KT 200V260 9999 FEW027 SCT030CB BKN049 16/10 Q1013

Closest aviation forecast (TAF) to Aeródromo Pelayos de la Presa

Closest forecast is Getafe Air Base, 30.5 nm (56.5 km) E. Retrieved 2021/04/11 12:00 UTC (22 minutes ago):

TAF LEGT 111100Z 1112/1212 24010KT 9999 SCT025 TX17/1116Z TN02/1206Z TEMPO 1112/1119 3000 RA SHRA BKN010 SCT030TCU PROB40 TEMPO 1112/1119 VRB15G25KT 2000 TSRA SCT030CB BECMG 1116/1118 02010KT